sensor_id;sensor_type;location;lat;lon;timestamp;pressure;altitude;pressure_sealevel;temperature;humidity
53689;BME280;39583;54.682;30.662;2022-07-11T10:13:19;98814.06;;;18.66;97.60
53689;BME280;39583;54.682;30.662;2022-07-11T10:15:47;98822.25;;;18.90;96.98
53689;BME280;39583;54.682;30.662;2022-07-11T10:18:31;98815.91;;;19.19;96.43
53689;BME280;39583;54.682;30.662;2022-07-11T10:21:22;98824.00;;;19.48;95.45
53689;BME280;39583;54.682;30.662;2022-07-11T10:24:00;98816.31;;;19.50;94.24
53689;BME280;39583;54.682;30.662;2022-07-11T10:26:38;98820.69;;;19.51;93.71
53689;BME280;39583;54.682;30.662;2022-07-11T10:29:31;98815.22;;;19.51;93.20
53689;BME280;39583;54.682;30.662;2022-07-11T10:32:09;98823.00;;;19.62;92.99
53689;BME280;39583;54.682;30.662;2022-07-11T10:34:35;98806.50;;;19.49;92.63
53689;BME280;39583;54.682;30.662;2022-07-11T10:37:07;98822.97;;;19.43;92.28
53689;BME280;39583;54.682;30.662;2022-07-11T10:39:36;98820.94;;;19.54;92.88
53689;BME280;39583;54.682;30.662;2022-07-11T10:42:06;98827.59;;;19.67;92.20
53689;BME280;39583;54.682;30.662;2022-07-11T10:44:49;98818.94;;;19.79;91.63
53689;BME280;39583;54.682;30.662;2022-07-11T10:47:54;98819.91;;;20.07;91.34
53689;BME280;39583;54.682;30.662;2022-07-11T10:50:35;98800.09;;;20.15;90.44
53689;BME280;39583;54.682;30.662;2022-07-11T10:53:07;98815.06;;;20.17;88.93
53689;BME280;39583;54.682;30.662;2022-07-11T10:55:37;98813.09;;;20.23;89.00
53689;BME280;39583;54.682;30.662;2022-07-11T10:58:11;98816.94;;;20.22;88.56
53689;BME280;39583;54.682;30.662;2022-07-11T11:00:45;98815.81;;;20.23;88.74
53689;BME280;39583;54.682;30.662;2022-07-11T11:03:11;98814.88;;;20.14;87.10
53689;BME280;39583;54.682;30.662;2022-07-11T11:11:04;98815.41;;;19.17;86.87
53689;BME280;39583;54.682;30.662;2022-07-11T11:13:32;98814.75;;;19.01;87.89
53689;BME280;39583;54.682;30.662;2022-07-11T11:16:02;98813.50;;;18.93;88.24
53689;BME280;39583;54.682;30.662;2022-07-11T11:18:31;98810.47;;;18.95;88.48
53689;BME280;39583;54.682;30.662;2022-07-11T11:23:33;98809.47;;;19.09;88.22
53689;BME280;39583;54.682;30.662;2022-07-11T11:28:38;98803.78;;;19.49;87.61
53689;BME280;39583;54.682;30.662;2022-07-11T11:31:19;98809.25;;;19.49;87.29
53689;BME280;39583;54.682;30.662;2022-07-11T11:33:47;98806.94;;;19.61;86.82
53689;BME280;39583;54.682;30.662;2022-07-11T11:36:17;98807.31;;;19.73;86.34
53689;BME280;39583;54.682;30.662;2022-07-11T11:38:44;98817.50;;;19.67;85.55
53689;BME280;39583;54.682;30.662;2022-07-11T11:41:30;98803.31;;;19.65;85.35
53689;BME280;39583;54.682;30.662;2022-07-11T11:43:59;98809.00;;;19.69;85.62
53689;BME280;39583;54.682;30.662;2022-07-11T11:46:30;98806.19;;;19.74;85.01
53689;BME280;39583;54.682;30.662;2022-07-11T11:48:58;98807.50;;;19.77;85.18
53689;BME280;39583;54.682;30.662;2022-07-11T11:51:29;98808.91;;;19.74;84.49
53689;BME280;39583;54.682;30.662;2022-07-11T11:53:57;98821.91;;;19.82;84.43
53689;BME280;39583;54.682;30.662;2022-07-11T12:01:29;98819.13;;;19.68;83.68
53689;BME280;39583;54.682;30.662;2022-07-11T12:03:58;98827.09;;;19.84;84.46
53689;BME280;39583;54.682;30.662;2022-07-11T12:06:35;98824.06;;;19.85;83.87
53689;BME280;39583;54.682;30.662;2022-07-11T12:11:30;98830.84;;;19.88;83.98
53689;BME280;39583;54.682;30.662;2022-07-11T12:14:02;98827.16;;;19.79;83.69
53689;BME280;39583;54.682;30.662;2022-07-11T12:16:29;98828.03;;;19.74;83.69
53689;BME280;39583;54.682;30.662;2022-07-11T12:19:08;98826.06;;;19.80;83.74
53689;BME280;39583;54.682;30.662;2022-07-11T12:21:35;98831.22;;;19.81;83.28
53689;BME280;39583;54.682;30.662;2022-07-11T12:24:07;98821.63;;;19.84;83.19
53689;BME280;39583;54.682;30.662;2022-07-11T12:26:36;98822.50;;;19.98;83.41
53689;BME280;39583;54.682;30.662;2022-07-11T12:29:17;98833.03;;;20.04;82.88
53689;BME280;39583;54.682;30.662;2022-07-11T12:31:56;98829.72;;;20.08;83.12
53689;BME280;39583;54.682;30.662;2022-07-11T12:37:06;98835.13;;;19.94;82.94
53689;BME280;39583;54.682;30.662;2022-07-11T12:39:35;98835.28;;;19.84;83.10
53689;BME280;39583;54.682;30.662;2022-07-11T12:47:29;98821.28;;;19.48;83.48
53689;BME280;39583;54.682;30.662;2022-07-11T12:49:56;98823.09;;;19.33;83.63
53689;BME280;39583;54.682;30.662;2022-07-11T12:52:22;98818.81;;;19.27;84.07
53689;BME280;39583;54.682;30.662;2022-07-11T12:54:49;98818.56;;;19.24;84.19
53689;BME280;39583;54.682;30.662;2022-07-11T12:57:21;98825.63;;;19.30;84.28
53689;BME280;39583;54.682;30.662;2022-07-11T12:59:48;98823.50;;;19.45;84.13
53689;BME280;39583;54.682;30.662;2022-07-11T13:02:14;98827.94;;;19.41;83.79
53689;BME280;39583;54.682;30.662;2022-07-11T13:10:16;98829.25;;;18.72;85.07
53689;BME280;39583;54.682;30.662;2022-07-11T13:12:44;98827.84;;;18.46;86.14
53689;BME280;39583;54.682;30.662;2022-07-11T13:15:12;98818.75;;;18.26;87.10
53689;BME280;39583;54.682;30.662;2022-07-11T13:17:43;98823.78;;;18.14;87.87
53689;BME280;39583;54.682;30.662;2022-07-11T13:20:15;98826.81;;;18.08;88.17
53689;BME280;39583;54.682;30.662;2022-07-11T13:22:46;98827.72;;;17.98;88.71
53689;BME280;39583;54.682;30.662;2022-07-11T13:25:14;98824.44;;;17.96;89.12
53689;BME280;39583;54.682;30.662;2022-07-11T13:27:44;98822.56;;;17.91;89.15
53689;BME280;39583;54.682;30.662;2022-07-11T13:30:13;98822.91;;;17.80;89.09
53689;BME280;39583;54.682;30.662;2022-07-11T13:32:44;98825.44;;;17.71;89.73
53689;BME280;39583;54.682;30.662;2022-07-11T13:35:11;98816.19;;;17.62;90.08
53689;BME280;39583;54.682;30.662;2022-07-11T13:37:39;98821.13;;;17.60;90.41
53689;BME280;39583;54.682;30.662;2022-07-11T13:40:12;98806.44;;;17.56;90.68
53689;BME280;39583;54.682;30.662;2022-07-11T13:42:41;98818.69;;;17.53;90.86
53689;BME280;39583;54.682;30.662;2022-07-11T13:45:08;98810.53;;;17.53;91.29
53689;BME280;39583;54.682;30.662;2022-07-11T13:47:35;98821.94;;;17.60;91.27
53689;BME280;39583;54.682;30.662;2022-07-11T13:50:02;98816.50;;;17.55;91.18
53689;BME280;39583;54.682;30.662;2022-07-11T13:52:29;98810.28;;;17.50;91.48
53689;BME280;39583;54.682;30.662;2022-07-11T13:54:56;98814.09;;;17.44;91.61
53689;BME280;39583;54.682;30.662;2022-07-11T13:57:23;98817.69;;;17.39;91.66
53689;BME280;39583;54.682;30.662;2022-07-11T13:59:49;98821.53;;;17.28;91.79
53689;BME280;39583;54.682;30.662;2022-07-11T14:02:16;98815.59;;;17.16;92.04
53689;BME280;39583;54.682;30.662;2022-07-11T14:04:44;98815.88;;;17.14;92.50
53689;BME280;39583;54.682;30.662;2022-07-11T14:07:10;98811.50;;;17.18;92.92
53689;BME280;39583;54.682;30.662;2022-07-11T14:09:38;98815.31;;;17.17;93.02
53689;BME280;39583;54.682;30.662;2022-07-11T14:12:05;98817.78;;;17.14;93.01
53689;BME280;39583;54.682;30.662;2022-07-11T14:14:32;98818.09;;;17.07;93.28
53689;BME280;39583;54.682;30.662;2022-07-11T14:17:02;98813.75;;;17.01;93.67
53689;BME280;39583;54.682;30.662;2022-07-11T14:19:29;98809.13;;;17.01;94.06
53689;BME280;39583;54.682;30.662;2022-07-11T14:21:57;98808.06;;;16.97;93.93
53689;BME280;39583;54.682;30.662;2022-07-11T14:24:23;98802.63;;;16.92;94.09
53689;BME280;39583;54.682;30.662;2022-07-11T14:26:50;98787.44;;;16.86;94.82
53689;BME280;39583;54.682;30.662;2022-07-11T14:29:16;98787.69;;;16.95;94.98
53689;BME280;39583;54.682;30.662;2022-07-11T14:31:42;98791.47;;;16.99;94.71
53689;BME280;39583;54.682;30.662;2022-07-11T14:34:09;98789.53;;;17.04;95.32
53689;BME280;39583;54.682;30.662;2022-07-11T14:36:35;98790.59;;;17.14;95.39
53689;BME280;39583;54.682;30.662;2022-07-11T14:39:02;98796.28;;;17.22;95.46
53689;BME280;39583;54.682;30.662;2022-07-11T14:41:28;98793.53;;;17.27;95.15
53689;BME280;39583;54.682;30.662;2022-07-11T14:43:55;98791.94;;;17.21;94.58
53689;BME280;39583;54.682;30.662;2022-07-11T14:46:22;98794.66;;;17.16;94.60
53689;BME280;39583;54.682;30.662;2022-07-11T14:48:49;98788.44;;;17.05;94.96
53689;BME280;39583;54.682;30.662;2022-07-11T14:51:16;98775.97;;;16.99;94.96
53689;BME280;39583;54.682;30.662;2022-07-11T14:53:43;98782.53;;;16.93;95.41
53689;BME280;39583;54.682;30.662;2022-07-11T14:56:09;98781.44;;;16.89;95.51
53689;BME280;39583;54.682;30.662;2022-07-11T14:58:35;98775.75;;;16.86;95.58
53689;BME280;39583;54.682;30.662;2022-07-11T15:01:02;98787.44;;;16.86;95.98
53689;BME280;39583;54.682;30.662;2022-07-11T15:03:29;98793.72;;;16.82;95.90
53689;BME280;39583;54.682;30.662;2022-07-11T15:06:06;98778.78;;;16.74;96.07
53689;BME280;39583;54.682;30.662;2022-07-11T15:08:33;98780.97;;;16.72;95.88
53689;BME280;39583;54.682;30.662;2022-07-11T15:11:18;98787.47;;;16.66;96.12
53689;BME280;39583;54.682;30.662;2022-07-11T15:14:04;98775.78;;;16.60;96.23
53689;BME280;39583;54.682;30.662;2022-07-11T15:16:31;98764.13;;;16.60;96.46
53689;BME280;39583;54.682;30.662;2022-07-11T15:18:59;98759.50;;;16.50;96.71
53689;BME280;39583;54.682;30.662;2022-07-11T15:21:26;98777.44;;;16.56;96.57
53689;BME280;39583;54.682;30.662;2022-07-11T15:23:53;98782.06;;;16.56;96.90
53689;BME280;39583;54.682;30.662;2022-07-11T15:26:19;98776.88;;;16.59;97.03
53689;BME280;39583;54.682;30.662;2022-07-11T15:28:46;98774.72;;;16.56;96.56
53689;BME280;39583;54.682;30.662;2022-07-11T15:31:16;98776.06;;;16.59;97.00
53689;BME280;39583;54.682;30.662;2022-07-11T15:33:43;98782.59;;;16.58;96.86
53689;BME280;39583;54.682;30.662;2022-07-11T15:36:13;98780.69;;;16.53;96.96
53689;BME280;39583;54.682;30.662;2022-07-11T15:38:40;98776.34;;;16.52;97.04
53689;BME280;39583;54.682;30.662;2022-07-11T15:41:06;98772.03;;;16.46;96.81
53689;BME280;39583;54.682;30.662;2022-07-11T15:43:33;98755.19;;;16.39;97.09
53689;BME280;39583;54.682;30.662;2022-07-11T15:46:02;98756.00;;;16.39;97.08
53689;BME280;39583;54.682;30.662;2022-07-11T15:48:30;98754.66;;;16.37;97.43
53689;BME280;39583;54.682;30.662;2022-07-11T15:50:57;98750.03;;;16.37;97.56
53689;BME280;39583;54.682;30.662;2022-07-11T15:53:23;98748.69;;;16.35;97.48
53689;BME280;39583;54.682;30.662;2022-07-11T15:55:50;98727.50;;;16.32;97.77
53689;BME280;39583;54.682;30.662;2022-07-11T15:58:17;98724.75;;;16.37;97.88
53689;BME280;39583;54.682;30.662;2022-07-11T16:00:43;98720.69;;;16.34;97.76
53689;BME280;39583;54.682;30.662;2022-07-11T16:03:10;98715.25;;;16.34;98.06
53689;BME280;39583;54.682;30.662;2022-07-11T16:05:38;98710.38;;;16.31;97.83
53689;BME280;39583;54.682;30.662;2022-07-11T16:08:05;98695.44;;;16.23;98.10
53689;BME280;39583;54.682;30.662;2022-07-11T16:10:31;98715.28;;;16.29;98.01
53689;BME280;39583;54.682;30.662;2022-07-11T16:12:58;98704.13;;;16.26;98.17
53689;BME280;39583;54.682;30.662;2022-07-11T16:15:24;98711.19;;;16.27;98.28
53689;BME280;39583;54.682;30.662;2022-07-11T16:17:51;98714.19;;;16.25;98.26
53689;BME280;39583;54.682;30.662;2022-07-11T16:20:18;98711.75;;;16.29;98.47
53689;BME280;39583;54.682;30.662;2022-07-11T16:22:44;98709.28;;;16.27;98.50
53689;BME280;39583;54.682;30.662;2022-07-11T16:25:11;98713.38;;;16.30;98.68
53689;BME280;39583;54.682;30.662;2022-07-11T16:27:37;98720.16;;;16.32;98.87
53689;BME280;39583;54.682;30.662;2022-07-11T16:30:06;98718.00;;;16.29;98.76
53689;BME280;39583;54.682;30.662;2022-07-11T16:32:32;98713.66;;;16.28;98.85
53689;BME280;39583;54.682;30.662;2022-07-11T16:34:59;98722.34;;;16.30;98.99
53689;BME280;39583;54.682;30.662;2022-07-11T16:37:26;98710.38;;;16.31;98.77
53689;BME280;39583;54.682;30.662;2022-07-11T16:39:52;98711.75;;;16.29;98.73
53689;BME280;39583;54.682;30.662;2022-07-11T16:42:37;98706.31;;;16.23;98.86
53689;BME280;39583;54.682;30.662;2022-07-11T16:45:22;98700.59;;;16.25;98.78
53689;BME280;39583;54.682;30.662;2022-07-11T16:47:48;98701.41;;;16.26;98.81
53689;BME280;39583;54.682;30.662;2022-07-11T16:50:15;98693.81;;;16.22;98.89
53689;BME280;39583;54.682;30.662;2022-07-11T16:52:42;98685.69;;;16.22;99.00
53689;BME280;39583;54.682;30.662;2022-07-11T16:55:09;98677.00;;;16.20;98.97
53689;BME280;39583;54.682;30.662;2022-07-11T16:57:37;98682.72;;;16.19;99.18
53689;BME280;39583;54.682;30.662;2022-07-11T17:00:04;98687.06;;;16.20;99.10
53689;BME280;39583;54.682;30.662;2022-07-11T17:02:31;98679.44;;;16.22;99.38
53689;BME280;39583;54.682;30.662;2022-07-11T17:04:58;98677.81;;;16.21;99.25
53689;BME280;39583;54.682;30.662;2022-07-11T17:07:25;98674.81;;;16.22;99.55
53689;BME280;39583;54.682;30.662;2022-07-11T17:09:52;98663.94;;;16.22;99.41
53689;BME280;39583;54.682;30.662;2022-07-11T17:12:20;98668.03;;;16.20;99.12
53689;BME280;39583;54.682;30.662;2022-07-11T17:14:46;98658.53;;;16.17;99.32
53689;BME280;39583;54.682;30.662;2022-07-11T17:17:13;98657.19;;;16.20;99.70
53689;BME280;39583;54.682;30.662;2022-07-11T17:19:40;98657.44;;;16.23;99.61
53689;BME280;39583;54.682;30.662;2022-07-11T17:22:07;98651.19;;;16.23;99.49
53689;BME280;39583;54.682;30.662;2022-07-11T17:24:35;98648.19;;;16.25;99.56
53689;BME280;39583;54.682;30.662;2022-07-11T17:27:01;98643.28;;;16.27;99.74
53689;BME280;39583;54.682;30.662;2022-07-11T17:29:27;98619.94;;;16.26;99.51
53689;BME280;39583;54.682;30.662;2022-07-11T17:31:54;98606.09;;;16.22;99.57
53689;BME280;39583;54.682;30.662;2022-07-11T17:34:21;98606.91;;;16.22;99.72
53689;BME280;39583;54.682;30.662;2022-07-11T17:36:47;98603.38;;;16.22;99.65
53689;BME280;39583;54.682;30.662;2022-07-11T17:39:14;98604.75;;;16.19;99.73
53689;BME280;39583;54.682;30.662;2022-07-11T17:41:40;98608.56;;;16.18;99.95
53689;BME280;39583;54.682;30.662;2022-07-11T17:44:07;98594.16;;;16.18;100.00
53689;BME280;39583;54.682;30.662;2022-07-11T17:46:34;98589.00;;;16.21;99.95
53689;BME280;39583;54.682;30.662;2022-07-11T17:49:01;98587.38;;;16.20;99.91
53689;BME280;39583;54.682;30.662;2022-07-11T17:51:27;98588.19;;;16.21;100.00
53689;BME280;39583;54.682;30.662;2022-07-11T17:53:54;98587.66;;;16.19;99.94
53689;BME280;39583;54.682;30.662;2022-07-11T17:56:20;98588.47;;;16.14;99.99
53689;BME280;39583;54.682;30.662;2022-07-11T17:58:47;98605.28;;;16.21;100.00
53689;BME280;39583;54.682;30.662;2022-07-11T18:01:14;98614.50;;;16.26;100.00
53689;BME280;39583;54.682;30.662;2022-07-11T18:03:41;98605.53;;;16.25;100.00
53689;BME280;39583;54.682;30.662;2022-07-11T18:06:08;98605.81;;;16.23;100.00
53689;BME280;39583;54.682;30.662;2022-07-11T18:08:35;98609.63;;;16.22;100.00
53689;BME280;39583;54.682;30.662;2022-07-11T18:11:01;98594.47;;;16.16;100.00
53689;BME280;39583;54.682;30.662;2022-07-11T18:13:29;98596.88;;;16.18;100.00
53689;BME280;39583;54.682;30.662;2022-07-11T18:15:56;98590.66;;;16.17;100.00
53689;BME280;39583;54.682;30.662;2022-07-11T18:18:27;98589.03;;;16.16;100.00
53689;BME280;39583;54.682;30.662;2022-07-11T18:20:53;98593.38;;;16.17;100.00
53689;BME280;39583;54.682;30.662;2022-07-11T18:23:21;98592.81;;;16.20;100.00
53689;BME280;39583;54.682;30.662;2022-07-11T18:25:48;98591.72;;;16.21;100.00
53689;BME280;39583;54.682;30.662;2022-07-11T18:28:15;98567.28;;;16.16;100.00
53689;BME280;39583;54.682;30.662;2022-07-11T18:30:42;98567.56;;;16.15;100.00
53689;BME280;39583;54.682;30.662;2022-07-11T18:33:08;98561.06;;;16.16;100.00
